»·PEaware :: PSV356 KSAN-KLAS

PSV356 :: KSAN-KLAS

FLIGHT INFORMATION

Flight Status: Arrived
Operator:
Power Set Virtual (website)
More flights by this operator :: More flights under this callsign
Pilot: Craig H. (6968)
Aircraft: AIRBUS A319
(A319)
More flights by this aircraft type
Origin: KSAN San Diego Intl-Lindbergh
United States
Destination: KLAS McCarran Intl
United States
More flights between these airports :: More routes between these airports
Route: PADRZ2 CHKNN SEBBY YELAH MISEN KEPEC6
File this flight plan on PilotEdge
Remarks:
Altitude:
(Current/Filed)
31,000ft
Speed:
(Current/Filed)
445kts
Departed: 26-Feb-20 04:50 PM
Arrived: 26-Feb-20 05:42 PM
Distance/Time
Traveled:
225nm/0:52
Distance/Time
To Go:
Arrived

Flight Plot

Page will automatically refresh every two minutes.

Flight plan parsing failed; only flown route is shown


Map Options




Map Legend


Flown Route
Filed Route
Departure Airport
Arrival Airport
Navaid (VOR, NDB)
Fix

Horizontal Profiles

Position Reports

Time Latitude Longitude Heading Altitude Ground
Speed
26-Feb-20 16:33 32.732981 -117.198844 94 19ft 0kts
26-Feb-20 16:34 32.732981 -117.198844 94 19ft 0kts
26-Feb-20 16:35 32.732981 -117.198844 94 19ft 0kts
26-Feb-20 16:37 32.732981 -117.198844 94 19ft 0kts
26-Feb-20 16:38 32.732981 -117.198844 94 19ft 0kts
26-Feb-20 16:39 32.732981 -117.198844 94 19ft 0kts
26-Feb-20 16:40 32.732981 -117.198844 94 19ft 0kts
26-Feb-20 16:41 32.732988 -117.198923 92 19ft 2kts
26-Feb-20 16:42 32.733054 -117.199632 97 19ft 2kts
26-Feb-20 16:43 32.732932 -117.199959 12 19ft 0kts
26-Feb-20 16:44 32.732931 -117.199959 12 19ft 0kts
26-Feb-20 16:45 32.733732 -117.199742 12 19ft 9kts
26-Feb-20 16:46 32.734058 -117.196040 106 20ft 16kts
26-Feb-20 16:47 32.732713 -117.190459 106 21ft 19kts
26-Feb-20 16:48 32.731101 -117.183853 106 19ft 21kts
26-Feb-20 16:49 32.729490 -117.177096 98 23ft 19kts
26-Feb-20 16:50 32.733950 -117.191349 285 23ft 159kts
26-Feb-20 16:51 32.756243 -117.239536 303 2638ft 188kts
26-Feb-20 16:52 32.790539 -117.301798 304 5073ft 258kts
26-Feb-20 16:53 32.834332 -117.371941 310 8661ft 275kts
26-Feb-20 16:54 32.883591 -117.447916 311 11119ft 322kts
26-Feb-20 16:54 32.933732 -117.525779 310 12235ft 388kts
26-Feb-20 16:56 33.014190 -117.651434 310 14915ft 416kts
26-Feb-20 16:57 33.090507 -117.756220 320 17073ft 420kts
26-Feb-20 16:57 33.165486 -117.832393 321 19225ft 427kts
26-Feb-20 16:59 33.273201 -117.938684 322 21864ft 436kts
26-Feb-20 16:59 33.351839 -118.015357 321 23440ft 442kts
26-Feb-20 17:00 33.447549 -118.109201 320 25268ft 445kts
26-Feb-20 17:02 33.558572 -118.216493 323 27698ft 436kts
26-Feb-20 17:02 33.646472 -118.274103 332 29179ft 434kts
26-Feb-20 17:03 33.767169 -118.276676 17 30573ft 464kts
26-Feb-20 17:05 33.874147 -118.142891 49 31227ft 490kts
26-Feb-20 17:05 33.939698 -118.030938 49 31218ft 491kts
26-Feb-20 17:06 34.018899 -117.896775 49 31220ft 491kts
26-Feb-20 17:07 34.097867 -117.763123 46 31228ft 489kts
26-Feb-20 17:08 34.184641 -117.637530 44 31237ft 487kts
26-Feb-20 17:09 34.271235 -117.511385 44 31242ft 488kts
26-Feb-20 17:10 34.357214 -117.384927 44 31282ft 488kts
26-Feb-20 17:11 34.443006 -117.257843 45 31330ft 488kts
26-Feb-20 17:12 34.528768 -117.130585 45 31345ft 488kts
26-Feb-20 17:13 34.614403 -117.003202 44 31364ft 486kts
26-Feb-20 17:14 34.699389 -116.876424 44 30836ft 484kts
26-Feb-20 17:15 34.783612 -116.750434 44 29851ft 479kts
26-Feb-20 17:16 34.871076 -116.630263 36 28860ft 467kts
26-Feb-20 17:17 34.970406 -116.531624 31 27040ft 464kts
26-Feb-20 17:18 35.070222 -116.434877 31 24413ft 446kts
26-Feb-20 17:19 35.159913 -116.331932 40 21701ft 441kts
26-Feb-20 17:20 35.243531 -116.226596 40 20706ft 425kts
26-Feb-20 17:21 35.324935 -116.124209 40 19715ft 417kts
26-Feb-20 17:22 35.405088 -116.023141 41 18213ft 408kts
26-Feb-20 17:23 35.482093 -115.925766 41 15854ft 395kts
26-Feb-20 17:24 35.557076 -115.830659 42 13476ft 383kts
26-Feb-20 17:25 35.625464 -115.743529 42 12974ft 318kts
26-Feb-20 17:26 35.681436 -115.672198 41 12988ft 272kts
26-Feb-20 17:27 35.733201 -115.606110 41 12996ft 267kts
26-Feb-20 17:28 35.797028 -115.573156 0 12998ft 256kts
26-Feb-20 17:29 35.868006 -115.569190 0 12997ft 256kts
26-Feb-20 17:30 35.939128 -115.565195 1 12997ft 256kts
26-Feb-20 17:31 35.989468 -115.506991 64 12057ft 278kts
26-Feb-20 17:32 36.017016 -115.419364 64 11010ft 262kts
26-Feb-20 17:33 36.025579 -115.330272 92 9892ft 277kts
26-Feb-20 17:34 36.018882 -115.238847 92 8047ft 257kts
26-Feb-20 17:35 36.011668 -115.154437 96 5919ft 237kts
26-Feb-20 17:36 36.007019 -115.081679 86 4651ft 168kts
26-Feb-20 17:37 36.031692 -115.047741 4 3689ft 150kts
26-Feb-20 17:38 36.069628 -115.060321 301 2973ft 150kts
26-Feb-20 17:39 36.073642 -115.110608 270 2283ft 147kts
26-Feb-20 17:40 36.073634 -115.149521 269 2119ft 41kts
26-Feb-20 17:41 36.075984 -115.156958 316 2144ft 18kts
26-Feb-20 17:42 36.081324 -115.158193 18 2135ft 21kts
26-Feb-20 17:43 36.083863 -115.154073 66 2114ft 17kts
26-Feb-20 17:44 36.085147 -115.152806 28 2106ft 0kts
26-Feb-20 17:45 36.085147 -115.152806 28 2106ft 0kts
26-Feb-20 17:46 36.085147 -115.152806 28 2106ft 0kts

Navigation Log

Ident Type
Flight plan parsing failed, navigation log unavailable